Magnus Heinason — OW2252 — position and weather

sailwx.info

Track history (hours):
 
Tides and Currents Weather Stations Pressure Air Temp Water Temp Dewpoint Dewpoint Depression Visibility Wind Speed Wind Dir Waves Ship Positions

Oceanographic research ship Magnus Heinason (Faroe Islands)

Detailed information on ship capabilities available from ARCUS's ALIAS (Arctic Logistics Information and Support) project.

Last reported at 2015-May-28 04:31 UTC. Time now 2015-May-28 06:05 UTC.
Position N 62°00' W 006°46'.

Length 44 m; draft 4 m.

Type: . MMSI: 231041000.

Date/timePositionNaut miles runAvg speedWind from/ knotsBaromVisibWave heightAir tempDewpointWater temp
2015-May-28 04:31N 62°00' W 006°46'0 0.0
2015-May-28 03:33N 62°00' W 006°46'0 0.0
2015-May-28 02:31N 62°00' W 006°46'0 0.0
2015-May-28 01:33N 62°00' W 006°46'0 0.0
2015-May-28 00:32N 62°00' W 006°46'0 0.0
2015-May-27 23:31N 62°00' W 006°46'0 0.0
2015-May-27 22:33N 62°00' W 006°46'0 0.0
2015-May-27 21:33N 62°00' W 006°46'0 0.0
2015-May-27 20:33N 62°00' W 006°46'0 0.0
2015-May-27 19:26N 62°00' W 006°46'0 0.0
2015-May-27 18:33N 62°00' W 006°46'0 0.0
2015-May-27 17:33N 62°00' W 006°46'0 0.0
2015-May-27 16:32N 62°00' W 006°46'0 0.0
2015-May-27 15:32N 62°00' W 006°46'0 0.0
2015-May-27 14:33N 62°00' W 006°46'0 0.0
2015-May-27 13:33N 62°00' W 006°46'0 0.0
2015-May-27 12:10N 62°00' W 006°46'0 0.0
2015-May-27 11:32N 62°00' W 006°46'0 0.0
2015-May-27 10:33N 62°00' W 006°46'0 0.0
2015-May-27 09:33N 62°00' W 006°46'0 0.0
2015-May-27 08:33N 62°00' W 006°46'  
2015-May-23 20:09N 60°53' W 005°36'4 4.6
2015-May-23 19:15N 60°51' W 005°29'27 4.5
2015-May-23 13:21N 60°35' W 004°45'26 1.3
2015-May-22 17:09N 60°52' W 004°03'5 8.2
2015-May-22 16:33N 60°56' W 004°00'7 6.8
2015-May-22 15:33N 61°03' W 003°56'7 7.1
2015-May-22 14:33N 61°09' W 003°51'7 7.0
2015-May-22 13:33N 61°16' W 003°46'8 6.3
2015-May-22 12:21N 61°23' W 003°41'5 5.9
2015-May-22 11:33N 61°28' W 003°39'2 2.3
2015-May-22 10:33N 61°29' W 003°43'7 6.6
2015-May-22 09:33N 61°32' W 003°55'44 6.2
2015-May-22 02:22N 61°49' W 005°21'6 7.1
2015-May-22 01:33N 61°51' W 005°32'6 6.5
2015-May-22 00:33N 61°54' W 005°45'7 6.0
2015-May-21 23:28N 61°57' W 005°57'7 7.8
2015-May-21 22:31N 62°00' W 006°11'7 6.6
2015-May-21 21:31N 62°02' W 006°25'9 7.3
2015-May-21 20:19N 62°01' W 006°44'1 1.6
2015-May-21 19:33N 62°00' W 006°46'0 0.0
2015-May-21 18:31N 62°00' W 006°46'0 0.0
2015-May-21 17:06N 62°00' W 006°46'0 0.0
2015-May-21 16:12N 62°00' W 006°46'0 0.0
2015-May-21 15:07N 62°00' W 006°46'0 0.0
2015-May-21 14:21N 62°00' W 006°46'0 0.0
2015-May-21 13:32N 62°00' W 006°46'5 0.1
2015-May-20 02:31N 61°56' W 006°42'5 4.1
2015-May-20 01:20N 61°55' W 006°52'5 6.4
2015-May-20 00:32N 61°57' W 007°02'  
Track history (hours):
 
Tides and Currents Weather Stations Pressure Air Temp Water Temp Dewpoint Dewpoint Depression Visibility Wind Speed Wind Dir Waves Ship Positions

Oceanographic research ship Magnus Heinason (Faroe Islands)

Detailed information on ship capabilities available from ARCUS's ALIAS (Arctic Logistics Information and Support) project.

Last reported at 2015-May-28 04:31 UTC. Time now 2015-May-28 06:05 UTC.
Position N 62°00' W 006°46'.

Length 44 m; draft 4 m.

Type: . MMSI: 231041000.

Date/timePositionNaut miles runAvg speedWind from/ knotsBaromVisibWave heightAir tempDewpointWater temp
2015-May-28 04:31N 62°00' W 006°46'0 0.0
2015-May-28 03:33N 62°00' W 006°46'0 0.0
2015-May-28 02:31N 62°00' W 006°46'0 0.0
2015-May-28 01:33N 62°00' W 006°46'0 0.0
2015-May-28 00:32N 62°00' W 006°46'0 0.0
2015-May-27 23:31N 62°00' W 006°46'0 0.0
2015-May-27 22:33N 62°00' W 006°46'0 0.0
2015-May-27 21:33N 62°00' W 006°46'0 0.0
2015-May-27 20:33N 62°00' W 006°46'0 0.0
2015-May-27 19:26N 62°00' W 006°46'0 0.0
2015-May-27 18:33N 62°00' W 006°46'0 0.0
2015-May-27 17:33N 62°00' W 006°46'0 0.0
2015-May-27 16:32N 62°00' W 006°46'0 0.0
2015-May-27 15:32N 62°00' W 006°46'0 0.0
2015-May-27 14:33N 62°00' W 006°46'0 0.0
2015-May-27 13:33N 62°00' W 006°46'0 0.0
2015-May-27 12:10N 62°00' W 006°46'0 0.0
2015-May-27 11:32N 62°00' W 006°46'0 0.0
2015-May-27 10:33N 62°00' W 006°46'0 0.0
2015-May-27 09:33N 62°00' W 006°46'0 0.0
2015-May-27 08:33N 62°00' W 006°46'  
2015-May-23 20:09N 60°53' W 005°36'4 4.6
2015-May-23 19:15N 60°51' W 005°29'27 4.5
2015-May-23 13:21N 60°35' W 004°45'26 1.3
2015-May-22 17:09N 60°52' W 004°03'5 8.2
2015-May-22 16:33N 60°56' W 004°00'7 6.8
2015-May-22 15:33N 61°03' W 003°56'7 7.1
2015-May-22 14:33N 61°09' W 003°51'7 7.0
2015-May-22 13:33N 61°16' W 003°46'8 6.3
2015-May-22 12:21N 61°23' W 003°41'5 5.9
2015-May-22 11:33N 61°28' W 003°39'2 2.3
2015-May-22 10:33N 61°29' W 003°43'7 6.6
2015-May-22 09:33N 61°32' W 003°55'44 6.2
2015-May-22 02:22N 61°49' W 005°21'6 7.1
2015-May-22 01:33N 61°51' W 005°32'6 6.5
2015-May-22 00:33N 61°54' W 005°45'7 6.0
2015-May-21 23:28N 61°57' W 005°57'7 7.8
2015-May-21 22:31N 62°00' W 006°11'7 6.6
2015-May-21 21:31N 62°02' W 006°25'9 7.3
2015-May-21 20:19N 62°01' W 006°44'1 1.6
2015-May-21 19:33N 62°00' W 006°46'0 0.0
2015-May-21 18:31N 62°00' W 006°46'0 0.0
2015-May-21 17:06N 62°00' W 006°46'0 0.0
2015-May-21 16:12N 62°00' W 006°46'0 0.0
2015-May-21 15:07N 62°00' W 006°46'0 0.0
2015-May-21 14:21N 62°00' W 006°46'0 0.0
2015-May-21 13:32N 62°00' W 006°46'5 0.1
2015-May-20 02:31N 61°56' W 006°42'5 4.1
2015-May-20 01:20N 61°55' W 006°52'5 6.4
2015-May-20 00:32N 61°57' W 007°02'  

Dump ship's entire track history